createdAt,value
2019-03-03T00:01:19.435Z,8.10
2019-03-03T00:03:59.351Z,8.10
2019-03-03T00:06:39.564Z,8.20
2019-03-03T00:09:19.870Z,8.10
2019-03-03T00:12:00.045Z,8.00
2019-03-03T00:14:40.007Z,8.20
2019-03-03T00:17:20.263Z,8.10
2019-03-03T00:20:00.466Z,8.10
2019-03-03T00:22:40.416Z,8.10
2019-03-03T00:25:20.417Z,8.00
2019-03-03T00:28:00.412Z,8.00
2019-03-03T00:30:40.658Z,8.00
2019-03-03T00:33:20.883Z,7.90
2019-03-03T00:36:00.990Z,8.00
2019-03-03T00:38:49.216Z,8.00
2019-03-03T00:41:48.505Z,8.10
2019-03-03T00:44:40.860Z,8.00
2019-03-03T00:47:42.627Z,7.90
2019-03-03T00:50:33.405Z,7.90
2019-03-03T00:53:22.181Z,8.10
2019-03-03T00:56:08.549Z,8.00
2019-03-03T00:58:59.373Z,8.00
2019-03-03T01:01:49.934Z,8.00
2019-03-03T01:04:52.016Z,7.90
2019-03-03T01:07:51.448Z,8.00
2019-03-03T01:10:37.163Z,8.00
2019-03-03T01:13:28.311Z,8.00
2019-03-03T01:16:09.897Z,8.00
2019-03-03T01:18:57.292Z,8.00
2019-03-03T01:21:30.353Z,7.90
2019-03-03T01:24:23.676Z,7.90
2019-03-03T01:26:51.304Z,7.90
2019-03-03T01:29:18.879Z,7.80
2019-03-03T01:31:46.615Z,7.90
2019-03-03T01:34:14.307Z,7.90
2019-03-03T01:36:42.233Z,7.90
2019-03-03T01:39:10.192Z,7.90
2019-03-03T01:41:38.140Z,7.90
2019-03-03T01:44:05.746Z,7.80
2019-03-03T01:46:33.340Z,7.80
2019-03-03T01:49:01.033Z,7.80
2019-03-03T01:51:28.599Z,7.80
2019-03-03T01:53:56.192Z,7.90
2019-03-03T01:56:23.784Z,7.90
2019-03-03T01:58:51.383Z,7.90
2019-03-03T02:01:19.083Z,7.90
2019-03-03T02:03:46.841Z,8.00
2019-03-03T02:06:14.772Z,8.00
2019-03-03T02:08:42.543Z,8.10
2019-03-03T02:11:10.509Z,8.00
2019-03-03T02:13:38.122Z,8.00
2019-03-03T02:16:07.253Z,8.10
2019-03-03T02:18:34.809Z,8.10
2019-03-03T02:21:02.400Z,8.10
2019-03-03T02:23:30.091Z,8.10
2019-03-03T02:25:57.690Z,8.10
2019-03-03T02:28:25.260Z,8.10
2019-03-03T02:30:52.829Z,8.10
2019-03-03T02:33:20.456Z,8.10
2019-03-03T02:35:48.093Z,8.30
2019-03-03T02:38:15.720Z,8.20
2019-03-03T02:40:43.387Z,8.20
2019-03-03T02:46:40.794Z,8.10
2019-03-03T02:49:20.721Z,8.10
2019-03-03T02:52:01.205Z,8.10
2019-03-03T02:54:41.507Z,8.10
2019-03-03T02:57:21.663Z,8.20
2019-03-03T03:00:01.665Z,8.20
2019-03-03T03:02:44.776Z,8.20
2019-03-03T03:08:57.955Z,8.10
2019-03-03T03:11:57.363Z,8.00
2019-03-03T03:14:59.593Z,8.00
2019-03-03T03:17:59.940Z,8.00
2019-03-03T03:20:46.075Z,8.10
2019-03-03T03:23:40.569Z,8.10
2019-03-03T03:26:40.222Z,8.10
2019-03-03T03:29:35.610Z,8.00
2019-03-03T03:32:20.833Z,8.00
2019-03-03T03:35:22.998Z,8.00
2019-03-03T03:38:22.222Z,7.90
2019-03-03T03:41:21.476Z,7.80
2019-03-03T03:44:15.382Z,7.80
2019-03-03T03:47:14.837Z,7.70
2019-03-03T03:50:13.959Z,7.90
2019-03-03T03:53:13.886Z,7.90
2019-03-03T03:56:14.333Z,7.90
2019-03-03T03:59:13.663Z,8.00
2019-03-03T04:02:12.654Z,8.10
2019-03-03T04:05:12.000Z,8.00
2019-03-03T04:10:44.970Z,7.90
2019-03-03T04:13:52.176Z,7.90
2019-03-03T04:16:37.965Z,8.00
2019-03-03T04:19:25.145Z,7.90
2019-03-03T04:22:31.636Z,7.90
2019-03-03T04:25:26.664Z,7.90
2019-03-03T04:28:28.908Z,7.80
2019-03-03T04:31:15.924Z,8.00
2019-03-03T04:34:10.339Z,7.90
2019-03-03T04:37:09.745Z,7.80
2019-03-03T04:40:11.811Z,7.90
2019-03-03T04:43:10.923Z,7.60
2019-03-03T04:46:01.013Z,7.60
2019-03-03T04:49:07.460Z,7.60
2019-03-03T04:51:59.278Z,7.50
2019-03-03T04:54:58.647Z,7.60
2019-03-03T04:57:48.951Z,7.30
2019-03-03T05:00:48.237Z,7.20
2019-03-03T05:03:47.488Z,7.20
2019-03-03T05:06:46.810Z,7.10
2019-03-03T05:09:46.280Z,7.10
2019-03-03T05:12:51.508Z,7.30
2019-03-03T05:15:50.712Z,6.90
2019-03-03T05:18:31.207Z,7.00
2019-03-03T05:21:11.472Z,6.80
2019-03-03T05:23:51.553Z,6.80
2019-03-03T05:26:31.656Z,6.80
2019-03-03T05:29:11.760Z,6.80
2019-03-03T05:31:52.028Z,6.80
2019-03-03T05:37:31.615Z,6.70
2019-03-03T05:40:11.486Z,6.70
2019-03-03T05:42:39.088Z,6.60
2019-03-03T05:45:06.807Z,6.80
2019-03-03T05:47:34.407Z,6.60
2019-03-03T05:50:02.008Z,6.70
2019-03-03T05:52:29.607Z,6.80
2019-03-03T05:54:57.256Z,7.10
2019-03-03T05:57:24.828Z,7.10
2019-03-03T05:59:52.420Z,7.10
2019-03-03T06:02:19.995Z,6.80
2019-03-03T06:04:47.636Z,6.90
2019-03-03T06:07:15.277Z,6.90
2019-03-03T06:09:43.296Z,7.00
2019-03-03T06:12:11.003Z,7.20
2019-03-03T06:14:58.008Z,7.10
2019-03-03T06:17:45.048Z,7.20
2019-03-03T06:20:25.445Z,7.00
2019-03-03T06:23:05.897Z,7.20
2019-03-03T06:25:46.125Z,7.10
2019-03-03T06:28:26.144Z,7.00
2019-03-03T06:31:06.210Z,7.10
2019-03-03T06:33:46.620Z,7.30
2019-03-03T06:36:26.725Z,7.40
2019-03-03T06:39:07.169Z,7.40
2019-03-03T06:41:46.985Z,7.30
2019-03-03T06:44:27.185Z,7.40
2019-03-03T06:47:07.455Z,7.00
2019-03-03T06:49:47.636Z,7.10
2019-03-03T06:52:27.724Z,6.90
2019-03-03T06:55:08.016Z,7.10
2019-03-03T06:57:48.284Z,7.00
2019-03-03T07:00:28.103Z,7.10
2019-03-03T07:03:08.266Z,7.00
2019-03-03T07:05:48.489Z,7.30
2019-03-03T07:08:28.881Z,7.50
2019-03-03T07:10:56.492Z,7.50
2019-03-03T07:13:24.067Z,7.70
2019-03-03T07:15:51.684Z,8.00
2019-03-03T07:18:19.351Z,8.40
2019-03-03T07:20:46.914Z,8.80
2019-03-03T07:23:14.511Z,8.90
2019-03-03T07:25:42.274Z,9.00
2019-03-03T07:28:09.872Z,9.20
2019-03-03T07:30:56.876Z,9.70
2019-03-03T07:33:39.803Z,9.80
2019-03-03T07:36:19.709Z,10.30
2019-03-03T07:39:00.250Z,10.60
2019-03-03T07:41:40.234Z,10.90
2019-03-03T07:44:20.235Z,11.10
2019-03-03T07:47:00.575Z,11.50
2019-03-03T07:49:40.653Z,11.60
2019-03-03T07:52:20.914Z,11.90
2019-03-03T07:55:01.044Z,12.20
2019-03-03T07:57:41.241Z,12.20
2019-03-03T08:00:21.352Z,12.50
2019-03-03T08:03:01.543Z,12.80
2019-03-03T08:05:41.767Z,13.20
2019-03-03T08:08:21.793Z,14.00
2019-03-03T08:11:01.982Z,14.00
2019-03-03T08:13:42.157Z,13.90
2019-03-03T08:16:22.546Z,13.90
2019-03-03T08:19:03.462Z,14.00
2019-03-03T08:21:44.100Z,14.20
2019-03-03T08:24:24.150Z,14.10
2019-03-03T08:27:04.377Z,14.20
2019-03-03T08:29:44.260Z,14.30
2019-03-03T08:32:24.470Z,14.50
2019-03-03T08:35:04.493Z,15.20
2019-03-03T08:37:44.790Z,15.10
2019-03-03T08:40:24.799Z,15.20
2019-03-03T08:49:09.577Z,15.90
2019-03-03T08:51:54.709Z,16.10
2019-03-03T08:54:54.145Z,16.00
2019-03-03T08:57:53.702Z,16.20
2019-03-03T09:00:52.698Z,16.20
2019-03-03T09:03:41.764Z,16.00
2019-03-03T09:06:44.015Z,16.10
2019-03-03T09:09:46.862Z,16.50
2019-03-03T09:12:43.009Z,17.00
2019-03-03T09:15:32.930Z,17.10
2019-03-03T09:18:30.587Z,17.20
2019-03-03T09:21:30.335Z,17.00
2019-03-03T09:24:29.568Z,17.00
2019-03-03T09:27:34.469Z,17.10
2019-03-03T09:30:33.889Z,17.00
2019-03-03T09:33:33.289Z,17.10
2019-03-03T09:36:35.312Z,17.00
2019-03-03T09:39:34.783Z,17.30
2019-03-03T09:42:22.347Z,17.30
2019-03-03T09:45:15.184Z,17.20
2019-03-03T09:48:01.937Z,17.20
2019-03-03T09:51:07.556Z,17.00
2019-03-03T09:54:06.725Z,17.10
2019-03-03T09:57:06.014Z,17.30
2019-03-03T09:59:53.614Z,17.50
2019-03-03T10:02:38.955Z,17.40
2019-03-03T10:05:32.133Z,17.30
2019-03-03T10:08:34.000Z,17.00
2019-03-03T10:11:23.688Z,16.70
2019-03-03T10:14:22.651Z,16.70
2019-03-03T10:17:21.860Z,16.90
2019-03-03T10:20:21.044Z,17.10
2019-03-03T10:23:14.760Z,17.10
2019-03-03T10:26:14.656Z,17.20
2019-03-03T10:29:13.988Z,18.00
2019-03-03T10:32:13.173Z,18.20
2019-03-03T10:38:07.112Z,18.70
2019-03-03T10:41:06.715Z,18.60
2019-03-03T10:43:57.174Z,19.10
2019-03-03T10:46:54.039Z,19.50
2019-03-03T10:49:44.856Z,20.00
2019-03-03T10:52:44.654Z,20.40
2019-03-03T10:55:39.100Z,21.00
2019-03-03T10:58:38.150Z,21.50
2019-03-03T11:01:25.768Z,21.50
2019-03-03T11:04:15.730Z,21.90
2019-03-03T11:07:20.654Z,22.70
2019-03-03T11:10:20.290Z,22.70
2019-03-03T11:13:19.472Z,22.80
2019-03-03T11:16:14.929Z,23.30
2019-03-03T11:19:06.992Z,23.40
2019-03-03T11:21:56.940Z,23.70
2019-03-03T11:24:56.511Z,24.50
2019-03-03T11:28:01.766Z,24.70
2019-03-03T11:31:02.993Z,24.90
2019-03-03T11:34:02.421Z,25.10
2019-03-03T11:37:01.793Z,24.70
2019-03-03T11:39:48.349Z,24.50
2019-03-03T11:42:48.173Z,25.20
2019-03-03T11:45:47.252Z,25.20
2019-03-03T11:48:49.505Z,25.30
2019-03-03T11:51:42.464Z,25.40
2019-03-03T11:54:48.929Z,25.40
2019-03-03T11:57:55.395Z,25.80
2019-03-03T12:00:50.552Z,26.50
2019-03-03T12:03:50.163Z,27.40
2019-03-03T12:06:36.275Z,27.80
2019-03-03T12:09:29.252Z,28.40
2019-03-03T12:12:32.326Z,28.90
2019-03-03T12:15:37.752Z,29.50
2019-03-03T12:18:27.971Z,30.20
2019-03-03T12:21:15.128Z,30.30
2019-03-03T12:24:07.317Z,30.50
2019-03-03T12:26:54.063Z,30.50
2019-03-03T12:29:59.247Z,30.50
2019-03-03T12:32:58.877Z,30.30
2019-03-03T12:35:57.923Z,29.90
2019-03-03T12:38:57.086Z,29.60
2019-03-03T12:44:26.904Z,28.50
2019-03-03T12:47:32.185Z,28.20
2019-03-03T12:50:31.608Z,27.80
2019-03-03T12:53:36.747Z,27.80
2019-03-03T12:56:33.040Z,27.50
2019-03-03T12:59:32.608Z,27.20
2019-03-03T13:02:37.742Z,26.60
2019-03-03T13:05:36.971Z,26.70
2019-03-03T13:08:36.384Z,26.60
2019-03-03T13:11:35.680Z,26.50
2019-03-03T13:14:37.621Z,26.50
2019-03-03T13:17:37.571Z,26.80
2019-03-03T13:20:37.564Z,27.20
2019-03-03T13:23:39.564Z,27.70
2019-03-03T13:26:39.136Z,28.20
2019-03-03T13:29:38.226Z,28.70
2019-03-03T13:32:24.056Z,29.00
2019-03-03T13:35:23.421Z,29.40
2019-03-03T13:38:11.908Z,29.30
2019-03-03T13:41:10.949Z,29.60
2019-03-03T13:43:50.692Z,30.00
2019-03-03T13:46:30.837Z,30.30
2019-03-03T13:49:10.974Z,30.20
2019-03-03T13:51:51.089Z,29.90
2019-03-03T13:54:31.001Z,29.40
2019-03-03T13:57:11.205Z,28.90
2019-03-03T13:59:51.101Z,28.30
2019-03-03T14:02:31.237Z,28.00
2019-03-03T14:05:11.167Z,28.30
2019-03-03T14:07:51.216Z,28.90
2019-03-03T14:10:31.262Z,29.30
2019-03-03T14:13:11.372Z,29.60
2019-03-03T14:15:51.481Z,30.00
2019-03-03T14:18:31.536Z,30.30
2019-03-03T14:21:14.220Z,31.00
2019-03-03T14:23:52.395Z,31.50
2019-03-03T14:26:39.392Z,31.90
2019-03-03T14:29:26.533Z,32.00
2019-03-03T14:32:13.557Z,31.70
2019-03-03T14:35:00.921Z,31.20
2019-03-03T14:37:41.028Z,30.70
2019-03-03T14:43:10.543Z,30.40
2019-03-03T14:45:50.769Z,30.40
2019-03-03T14:48:30.797Z,30.30
2019-03-03T14:51:10.913Z,29.90
2019-03-03T14:53:50.928Z,29.60
2019-03-03T14:56:30.876Z,29.50
2019-03-03T14:59:11.327Z,29.30
2019-03-03T15:01:51.628Z,29.10
2019-03-03T15:04:19.423Z,28.80
2019-03-03T15:07:06.400Z,28.10
2019-03-03T15:09:46.144Z,27.60
2019-03-03T15:12:26.374Z,26.90
2019-03-03T15:15:06.632Z,26.30
2019-03-03T15:17:46.817Z,25.60
2019-03-03T15:20:26.880Z,24.90
2019-03-03T15:23:07.054Z,24.40
2019-03-03T15:25:47.367Z,23.90
2019-03-03T15:28:27.466Z,23.40
2019-03-03T15:31:07.973Z,23.00
2019-03-03T15:33:47.761Z,22.60
2019-03-03T15:36:30.227Z,22.30
2019-03-03T15:39:09.876Z,21.90
2019-03-03T15:41:50.078Z,21.60
2019-03-03T15:44:30.066Z,21.40
2019-03-03T15:47:10.013Z,21.10
2019-03-03T15:49:50.240Z,20.90
2019-03-03T15:52:30.577Z,20.50
2019-03-03T15:55:10.691Z,20.40
2019-03-03T15:57:50.825Z,20.40
2019-03-03T16:00:31.052Z,20.50
2019-03-03T16:03:10.847Z,21.10
2019-03-03T16:05:51.460Z,21.80
2019-03-03T16:08:32.844Z,22.00
2019-03-03T16:11:11.499Z,22.40
2019-03-03T16:13:58.517Z,23.00
2019-03-03T16:16:38.932Z,23.10
2019-03-03T16:19:19.117Z,23.10
2019-03-03T16:21:59.281Z,22.90
2019-03-03T16:24:39.347Z,22.60
2019-03-03T16:27:19.392Z,22.20
2019-03-03T16:30:01.525Z,21.70
2019-03-03T16:32:41.981Z,21.30
2019-03-03T16:35:21.742Z,20.80
2019-03-03T16:37:49.563Z,20.50
2019-03-03T16:40:39.825Z,20.20
2019-03-03T16:43:25.626Z,19.90
2019-03-03T16:46:06.057Z,19.50
2019-03-03T16:48:46.176Z,19.20
2019-03-03T16:54:39.685Z,18.50
2019-03-03T16:57:19.457Z,18.20
2019-03-03T17:00:00.436Z,17.90
2019-03-03T17:02:40.029Z,17.70
2019-03-03T17:05:20.236Z,17.40
2019-03-03T17:08:00.494Z,17.10
2019-03-03T17:10:40.555Z,16.80
2019-03-03T17:13:20.723Z,16.40
2019-03-03T17:16:00.664Z,16.10
2019-03-03T17:18:41.005Z,16.20
2019-03-03T17:21:21.066Z,15.90
2019-03-03T17:24:01.281Z,15.80
2019-03-03T17:26:41.520Z,15.40
2019-03-03T17:29:21.544Z,15.50
2019-03-03T17:32:01.770Z,15.20
2019-03-03T17:34:42.093Z,15.00
2019-03-03T17:37:22.555Z,14.90
2019-03-03T17:40:02.700Z,14.70
2019-03-03T17:42:42.777Z,14.70
2019-03-03T17:45:22.660Z,14.50
2019-03-03T17:48:02.757Z,14.30
2019-03-03T17:50:42.708Z,14.40
2019-03-03T17:53:22.864Z,14.00
2019-03-03T17:56:02.736Z,14.00
2019-03-03T17:58:30.372Z,14.00
2019-03-03T18:01:17.401Z,13.80
2019-03-03T18:03:57.864Z,13.60
2019-03-03T18:06:39.032Z,13.50
2019-03-03T18:09:20.504Z,13.50
2019-03-03T18:11:59.744Z,13.40
2019-03-03T18:14:40.139Z,13.30
2019-03-03T18:17:20.534Z,13.10
2019-03-03T18:20:00.520Z,13.10
2019-03-03T18:22:40.728Z,13.00
2019-03-03T18:25:21.053Z,13.10
2019-03-03T18:28:01.080Z,13.10
2019-03-03T18:30:41.365Z,13.00
2019-03-03T18:33:21.403Z,12.90
2019-03-03T18:36:01.407Z,12.80
2019-03-03T18:38:41.413Z,12.80
2019-03-03T18:41:21.746Z,12.50
2019-03-03T18:44:01.750Z,12.60
2019-03-03T18:46:42.076Z,12.60
2019-03-03T18:49:22.100Z,12.20
2019-03-03T18:52:02.284Z,12.40
2019-03-03T18:54:42.400Z,12.20
2019-03-03T18:57:22.345Z,12.00
2019-03-03T19:00:02.575Z,12.00
2019-03-03T19:02:42.653Z,11.80
2019-03-03T19:05:22.705Z,11.70
2019-03-03T19:08:02.863Z,11.80
2019-03-03T19:10:43.223Z,11.70
2019-03-03T19:13:23.624Z,11.60
2019-03-03T19:15:51.401Z,11.60
2019-03-03T19:18:38.871Z,11.40
2019-03-03T19:21:25.905Z,11.40
2019-03-03T19:24:06.445Z,11.50
2019-03-03T19:26:46.494Z,11.50
2019-03-03T19:29:26.579Z,11.30
2019-03-03T19:32:06.764Z,11.20
2019-03-03T19:34:46.587Z,11.30
2019-03-03T19:37:26.928Z,11.30
2019-03-03T19:40:07.070Z,11.30
2019-03-03T19:42:47.232Z,11.10
2019-03-03T19:45:27.242Z,11.00
2019-03-03T19:48:07.285Z,10.80
2019-03-03T19:50:47.506Z,11.00
2019-03-03T19:53:27.689Z,10.90
2019-03-03T19:56:08.097Z,10.90
2019-03-03T19:58:47.672Z,10.90
2019-03-03T20:01:27.888Z,10.70
2019-03-03T20:04:07.929Z,10.70
2019-03-03T20:06:50.058Z,10.90
2019-03-03T20:09:30.170Z,10.90
2019-03-03T20:11:57.762Z,11.00
2019-03-03T20:14:25.510Z,10.80
2019-03-03T20:16:53.103Z,10.70
2019-03-03T20:19:21.133Z,10.80
2019-03-03T20:21:48.654Z,10.60
2019-03-03T20:24:16.280Z,10.40
2019-03-03T20:26:46.076Z,10.30
2019-03-03T20:29:13.859Z,10.30
2019-03-03T20:31:41.817Z,10.20
2019-03-03T20:34:12.132Z,10.20
2019-03-03T20:36:39.909Z,10.20
2019-03-03T20:39:07.937Z,10.30
2019-03-03T20:41:35.588Z,10.20
2019-03-03T20:44:03.394Z,10.20
2019-03-03T20:46:33.389Z,10.10
2019-03-03T20:49:05.433Z,10.00
2019-03-03T20:51:30.772Z,10.10
2019-03-03T20:53:58.467Z,10.00
2019-03-03T20:56:26.369Z,10.10
2019-03-03T20:58:54.130Z,10.10
2019-03-03T21:01:21.808Z,10.20
2019-03-03T21:03:49.438Z,10.20
2019-03-03T21:06:16.997Z,10.10
2019-03-03T21:08:44.591Z,10.00
2019-03-03T21:11:12.208Z,10.00
2019-03-03T21:13:39.899Z,10.00
2019-03-03T21:16:07.534Z,10.10
2019-03-03T21:18:35.068Z,10.00
2019-03-03T21:21:02.669Z,9.90
2019-03-03T21:23:31.196Z,10.00
2019-03-03T21:25:58.786Z,10.20
2019-03-03T21:28:26.397Z,10.20
2019-03-03T21:30:54.007Z,10.10
2019-03-03T21:33:21.697Z,9.90
2019-03-03T21:35:49.284Z,10.00
2019-03-03T21:38:16.906Z,10.10
2019-03-03T21:40:44.496Z,10.10
2019-03-03T21:43:12.069Z,10.20
2019-03-03T21:45:39.717Z,10.40
2019-03-03T21:48:07.384Z,10.60
2019-03-03T21:50:34.981Z,10.80
2019-03-03T21:53:02.579Z,10.70
2019-03-03T21:55:30.323Z,10.50
2019-03-03T21:57:57.935Z,10.30
2019-03-03T22:00:27.452Z,10.30
2019-03-03T22:02:55.251Z,10.30
2019-03-03T22:05:22.927Z,10.40
2019-03-03T22:07:50.537Z,10.40
2019-03-03T22:10:18.249Z,10.40
2019-03-03T22:12:45.916Z,10.30
2019-03-03T22:15:13.747Z,10.10
2019-03-03T22:17:41.419Z,10.10
2019-03-03T22:20:09.322Z,10.00
2019-03-03T22:22:37.080Z,10.00
2019-03-03T22:25:05.224Z,10.00
2019-03-03T22:27:32.814Z,10.20
2019-03-03T22:30:00.550Z,10.30
2019-03-03T22:32:28.289Z,10.10
2019-03-03T22:34:55.912Z,10.10
2019-03-03T22:37:23.629Z,10.20
2019-03-03T22:39:51.383Z,10.40
2019-03-03T22:42:18.964Z,10.70
2019-03-03T22:44:46.859Z,10.50
2019-03-03T22:47:27.377Z,10.30
2019-03-03T22:50:07.858Z,10.30
2019-03-03T22:52:47.467Z,10.50
2019-03-03T22:55:27.690Z,10.20
2019-03-03T22:58:07.746Z,10.10
2019-03-03T23:00:52.984Z,10.10
2019-03-03T23:03:33.076Z,10.10
2019-03-03T23:06:13.220Z,10.20
2019-03-03T23:08:53.241Z,10.50
2019-03-03T23:11:33.509Z,10.60
2019-03-03T23:14:13.913Z,10.60
2019-03-03T23:16:54.293Z,10.60
2019-03-03T23:19:34.481Z,10.80
2019-03-03T23:22:14.494Z,10.60
2019-03-03T23:24:54.567Z,10.60
2019-03-03T23:27:34.597Z,10.40
2019-03-03T23:30:14.850Z,10.50
2019-03-03T23:32:55.232Z,10.30
2019-03-03T23:35:35.285Z,10.30
2019-03-03T23:38:15.437Z,10.20
2019-03-03T23:40:55.661Z,10.30
2019-03-03T23:43:35.867Z,10.30
2019-03-03T23:46:16.158Z,10.30
2019-03-03T23:48:56.287Z,10.20
2019-03-03T23:51:36.450Z,10.60
2019-03-03T23:54:16.479Z,10.50
2019-03-03T23:56:56.701Z,10.50
2019-03-03T23:59:37.093Z,10.60
